Aviation WX

[Source: ADDS]
METAR
KFKL 241515Z AUTO 27014G20KT 10SM FEW042 BKN065 22/13 A2988 RMK AO1 =
TAF
KFKL 241120Z 2412/2512 28005KT P6SM SCT050 FM241600 27008G16KT P6SM SCT200 FM250300 26004KT P6SM SCT200 AMD LTD TO CLD VIS AND WIND =

Oh, The Fun We Have Had Here.

A gallery of photos from events at the Airport.

 

c54.2 

Crew

C-54 "Spirit of Freedom" aka "The Candy Bomber" 2015

Candy run

Candy Run after the Candy Bomber Drop 2015

b25.1 

B-25 Mitchell Bomber.  2015

SNJ f

SNJ "Texan".  2015

 Apache 1

Apache 2015

Stat

StatMedEvac 2015

Jumper 1

Jumper Away 2015

Cars

Knight Cruisers were here too 2015

Vets

None of the fun we have would be possible without our Veterans.  We thank you. 2015

Wine 1

Wine and Dine event, you should have been there.


2014 coming soon


P51 Taxi copy

P-51 Mustang 2013